createdAt,value
2019-04-11T00:02:02.540Z,9.90
2019-04-11T00:04:34.944Z,12.10
2019-04-11T00:07:07.864Z,9.97
2019-04-11T00:09:40.882Z,9.50
2019-04-11T00:12:13.120Z,10.37
2019-04-11T00:14:46.789Z,10.80
2019-04-11T00:17:19.600Z,8.10
2019-04-11T00:19:51.901Z,8.47
2019-04-11T00:22:24.332Z,9.17
2019-04-11T00:24:56.646Z,10.67
2019-04-11T00:27:28.950Z,7.87
2019-04-11T00:30:01.932Z,11.87
2019-04-11T00:32:34.300Z,10.30
2019-04-11T00:35:07.184Z,9.43
2019-04-11T00:37:39.472Z,10.40
2019-04-11T00:40:13.079Z,9.70
2019-04-11T00:42:47.540Z,10.13
2019-04-11T00:45:19.880Z,6.47
2019-04-11T00:47:53.181Z,10.07
2019-04-11T00:50:25.510Z,8.40
2019-04-11T00:52:58.033Z,7.33
2019-04-11T00:55:31.354Z,10.20
2019-04-11T00:58:03.726Z,9.23
2019-04-11T01:00:37.100Z,8.93
2019-04-11T01:03:10.036Z,9.50
2019-04-11T01:05:42.615Z,9.67
2019-04-11T01:08:15.698Z,11.77
2019-04-11T01:10:48.032Z,10.00
2019-04-11T01:13:20.956Z,11.27
2019-04-11T01:15:54.435Z,8.03
2019-04-11T01:18:27.708Z,9.67
2019-04-11T01:20:59.989Z,9.37
2019-04-11T01:23:33.233Z,10.03
2019-04-11T01:26:05.851Z,9.03
2019-04-11T01:28:38.591Z,8.93
2019-04-11T01:31:11.594Z,8.90
2019-04-11T01:33:44.297Z,10.30
2019-04-11T01:36:16.647Z,8.03
2019-04-11T01:38:52.628Z,8.87
2019-04-11T01:41:24.876Z,13.03
2019-04-11T01:44:03.330Z,12.93
2019-04-11T01:46:31.961Z,11.30
2019-04-11T01:49:06.175Z,10.50
2019-04-11T01:51:38.454Z,9.37
2019-04-11T01:54:11.209Z,9.20
2019-04-11T01:56:43.922Z,8.77
2019-04-11T01:59:17.355Z,10.27
2019-04-11T02:01:49.986Z,9.00
2019-04-11T02:04:23.679Z,9.57
2019-04-11T02:06:56.283Z,9.63
2019-04-11T02:09:28.631Z,9.27
2019-04-11T02:12:01.667Z,9.60
2019-04-11T02:14:35.749Z,9.10
2019-04-11T02:17:08.540Z,9.70
2019-04-11T02:19:41.259Z,8.67
2019-04-11T02:22:13.850Z,8.67
2019-04-11T02:24:46.292Z,9.17
2019-04-11T02:27:19.060Z,10.43
2019-04-11T02:29:51.391Z,10.27
2019-04-11T02:32:25.415Z,9.97
2019-04-11T02:34:59.368Z,10.60
2019-04-11T02:37:33.717Z,9.60
2019-04-11T02:40:07.541Z,12.57
2019-04-11T02:42:41.052Z,9.47
2019-04-11T02:45:24.990Z,10.53
2019-04-11T02:47:48.729Z,12.63
2019-04-11T02:50:23.835Z,11.83
2019-04-11T02:52:56.643Z,10.27
2019-04-11T02:55:29.511Z,11.47
2019-04-11T02:58:04.013Z,9.97
2019-04-11T03:00:37.643Z,9.07
2019-04-11T03:03:13.034Z,12.73
2019-04-11T03:05:46.777Z,11.83
2019-04-11T03:08:21.745Z,11.97
2019-04-11T03:10:53.757Z,12.47
2019-04-11T03:13:27.351Z,12.07
2019-04-11T03:16:19.251Z,11.77
2019-04-11T03:18:53.063Z,11.07
2019-04-11T03:21:13.684Z,10.97
2019-04-11T03:23:43.404Z,12.53
2019-04-11T03:26:16.854Z,13.27
2019-04-11T03:28:52.183Z,12.60
2019-04-11T03:35:03.139Z,11.33
2019-04-11T03:39:29.205Z,11.60
2019-04-11T03:41:54.792Z,10.47
2019-04-11T03:44:21.288Z,12.73
2019-04-11T03:47:01.354Z,11.27
2019-04-11T03:49:31.651Z,12.27
2019-04-11T03:51:55.637Z,10.90
2019-04-11T03:54:29.481Z,12.27
2019-04-11T03:57:03.570Z,14.23
2019-04-11T03:59:38.443Z,14.13
2019-04-11T04:02:12.356Z,13.87
2019-04-11T04:04:45.579Z,13.63
2019-04-11T04:07:19.173Z,11.67
2019-04-11T04:09:53.643Z,13.50
2019-04-11T04:12:27.175Z,13.87
2019-04-11T04:15:01.416Z,12.87
2019-04-11T04:17:35.272Z,14.80
2019-04-11T04:20:08.833Z,15.80
2019-04-11T04:22:42.077Z,14.90
2019-04-11T04:25:16.658Z,13.23
2019-04-11T04:27:49.309Z,14.90
2019-04-11T04:30:24.779Z,17.03
2019-04-11T04:32:58.423Z,18.20
2019-04-11T04:35:31.707Z,14.90
2019-04-11T04:38:05.177Z,14.80
2019-04-11T04:40:50.988Z,15.90
2019-04-11T04:43:14.463Z,15.20
2019-04-11T04:46:05.115Z,15.13
2019-04-11T04:48:24.275Z,15.40
2019-04-11T04:50:57.248Z,14.23
2019-04-11T04:53:30.786Z,14.17
2019-04-11T04:56:03.265Z,15.87
2019-04-11T04:58:35.546Z,16.63
2019-04-11T05:01:07.962Z,15.13
2019-04-11T05:03:42.389Z,16.20
2019-04-11T05:06:16.346Z,15.53
2019-04-11T05:08:49.314Z,17.83
2019-04-11T05:11:23.154Z,17.03
2019-04-11T05:13:58.702Z,20.67
2019-04-11T05:16:31.063Z,17.87
2019-04-11T05:19:04.485Z,16.97
2019-04-11T05:21:37.246Z,13.90
2019-04-11T05:24:10.340Z,18.27
2019-04-11T05:26:43.895Z,17.83
2019-04-11T05:29:17.365Z,16.63
2019-04-11T05:31:51.129Z,20.43
2019-04-11T05:34:23.797Z,17.00
2019-04-11T05:36:57.519Z,19.80
2019-04-11T05:39:30.323Z,21.77
2019-04-11T05:42:03.165Z,18.60
2019-04-11T05:44:38.196Z,19.30
2019-04-11T05:47:09.409Z,17.53
2019-04-11T05:49:43.298Z,20.70
2019-04-11T05:52:16.150Z,21.23
2019-04-11T05:54:49.741Z,17.60
2019-04-11T05:57:26.854Z,21.67
2019-04-11T05:59:57.796Z,17.03
2019-04-11T06:02:30.145Z,19.30
2019-04-11T06:05:02.848Z,16.43
2019-04-11T06:07:40.032Z,18.50
2019-04-11T06:10:11.213Z,19.77
2019-04-11T06:12:43.533Z,16.40
2019-04-11T06:15:15.908Z,19.13
2019-04-11T06:17:48.264Z,16.93
2019-04-11T06:20:20.485Z,19.47
2019-04-11T06:22:52.744Z,17.73
2019-04-11T06:25:25.782Z,15.50
2019-04-11T06:27:59.932Z,20.07
2019-04-11T06:30:32.587Z,18.10
2019-04-11T06:33:08.032Z,16.10
2019-04-11T06:35:40.333Z,16.53
2019-04-11T06:38:12.633Z,15.87
2019-04-11T06:40:45.997Z,17.17
2019-04-11T06:43:18.415Z,16.60
2019-04-11T06:45:50.755Z,16.27
2019-04-11T06:48:24.570Z,15.87
2019-04-11T06:50:57.664Z,15.50
2019-04-11T06:53:30.179Z,19.17
2019-04-11T06:56:03.506Z,16.20
2019-04-11T06:58:35.880Z,20.57
2019-04-11T07:01:08.156Z,16.27
2019-04-11T07:03:40.639Z,16.60
2019-04-11T07:06:13.361Z,15.27
2019-04-11T07:08:46.925Z,15.33
2019-04-11T07:11:19.919Z,20.50
2019-04-11T07:13:53.292Z,19.73
2019-04-11T07:16:27.819Z,14.03
2019-04-11T07:19:00.631Z,17.67
2019-04-11T07:21:35.445Z,16.37
2019-04-11T07:24:07.903Z,15.83
2019-04-11T07:26:40.115Z,18.20
2019-04-11T07:29:13.063Z,17.63
2019-04-11T07:31:46.305Z,14.43
2019-04-11T07:34:19.470Z,18.13
2019-04-11T07:36:51.886Z,17.70
2019-04-11T07:39:25.640Z,14.60
2019-04-11T07:41:58.506Z,14.33
2019-04-11T07:44:32.232Z,15.57
2019-04-11T07:47:14.541Z,20.90
2019-04-11T07:49:41.035Z,18.30
2019-04-11T07:52:13.559Z,14.90
2019-04-11T07:54:45.775Z,14.57
2019-04-11T07:57:19.706Z,13.70
2019-04-11T07:59:52.004Z,13.57
2019-04-11T08:02:24.748Z,13.20
2019-04-11T08:04:57.657Z,13.10
2019-04-11T08:07:30.496Z,14.10
2019-04-11T08:10:03.117Z,13.27
2019-04-11T08:12:35.490Z,13.93
2019-04-11T08:15:08.962Z,13.80
2019-04-11T08:17:42.965Z,14.60
2019-04-11T08:20:15.756Z,12.20
2019-04-11T08:22:48.051Z,14.33
2019-04-11T08:25:20.909Z,13.13
2019-04-11T08:28:00.030Z,12.53
2019-04-11T08:30:27.608Z,12.87
2019-04-11T08:33:00.343Z,11.87
2019-04-11T08:35:33.648Z,11.83
2019-04-11T08:38:07.908Z,15.60
2019-04-11T08:40:40.254Z,12.43
2019-04-11T08:43:12.962Z,12.07
2019-04-11T08:45:46.471Z,12.33
2019-04-11T08:48:21.142Z,11.43
2019-04-11T08:50:54.647Z,12.07
2019-04-11T08:53:26.916Z,10.93
2019-04-11T08:56:01.054Z,12.07
2019-04-11T08:58:33.170Z,11.67
2019-04-11T09:01:05.851Z,12.30
2019-04-11T09:03:39.952Z,10.77
2019-04-11T09:06:12.575Z,9.03
2019-04-11T09:08:45.187Z,12.43
2019-04-11T09:11:20.405Z,12.77
2019-04-11T09:13:52.787Z,10.47
2019-04-11T09:16:25.776Z,9.50
2019-04-11T09:18:59.615Z,13.27
2019-04-11T09:21:32.327Z,11.93
2019-04-11T09:24:04.661Z,9.67
2019-04-11T09:26:38.067Z,8.70
2019-04-11T09:29:10.364Z,15.53
2019-04-11T09:31:43.879Z,8.70
2019-04-11T09:34:17.524Z,10.23
2019-04-11T09:36:49.902Z,10.60
2019-04-11T09:39:23.406Z,9.70
2019-04-11T09:41:56.618Z,8.40
2019-04-11T09:44:30.912Z,10.90
2019-04-11T09:47:03.648Z,10.57
2019-04-11T09:49:36.253Z,11.57
2019-04-11T09:52:10.128Z,8.67
2019-04-11T09:54:42.429Z,10.50
2019-04-11T09:57:14.934Z,11.07
2019-04-11T09:59:47.692Z,9.50
2019-04-11T10:02:20.978Z,10.10
2019-04-11T10:04:54.360Z,9.27
2019-04-11T10:07:28.103Z,8.77
2019-04-11T10:10:00.640Z,9.40
2019-04-11T10:12:33.981Z,11.53
2019-04-11T10:15:07.188Z,9.97
2019-04-11T10:17:40.621Z,9.03
2019-04-11T10:20:12.935Z,11.40
2019-04-11T10:22:45.991Z,9.33
2019-04-11T10:25:19.102Z,9.63
2019-04-11T10:27:51.548Z,9.53
2019-04-11T10:30:24.063Z,14.33
2019-04-11T10:32:57.359Z,11.53
2019-04-11T10:35:30.370Z,8.53
2019-04-11T10:38:02.686Z,9.30
2019-04-11T10:40:35.051Z,9.73
2019-04-11T10:43:07.761Z,9.50
2019-04-11T10:45:40.011Z,8.47
2019-04-11T10:48:12.288Z,11.17
2019-04-11T10:50:44.559Z,10.50
2019-04-11T10:53:17.983Z,10.93
2019-04-11T10:55:51.651Z,11.03
2019-04-11T10:58:24.726Z,11.77
2019-04-11T11:00:57.691Z,10.23
2019-04-11T11:03:30.698Z,10.50
2019-04-11T11:06:03.219Z,11.80
2019-04-11T11:08:35.559Z,11.63
2019-04-11T11:11:08.159Z,8.80
2019-04-11T11:13:40.837Z,12.17
2019-04-11T11:16:13.913Z,10.37
2019-04-11T11:19:15.554Z,11.63
2019-04-11T11:21:25.006Z,13.43
2019-04-11T11:23:54.456Z,11.07
2019-04-11T11:26:27.893Z,10.43
2019-04-11T11:29:07.140Z,10.20
2019-04-11T11:31:36.263Z,9.73
2019-04-11T11:34:09.240Z,9.87
2019-04-11T11:36:41.851Z,8.83
2019-04-11T11:39:15.144Z,9.00
2019-04-11T11:41:48.872Z,10.90
2019-04-11T11:44:22.375Z,9.53
2019-04-11T11:46:54.775Z,9.10
2019-04-11T11:49:42.508Z,9.60
2019-04-11T11:52:01.913Z,10.37
2019-04-11T11:54:35.646Z,9.23
2019-04-11T11:57:08.678Z,7.50
2019-04-11T11:59:41.069Z,9.03
2019-04-11T12:02:17.377Z,9.70
2019-04-11T12:04:48.519Z,9.43
2019-04-11T12:07:23.104Z,9.60
2019-04-11T12:09:55.470Z,11.20
2019-04-11T12:12:27.646Z,9.43
2019-04-11T12:14:59.871Z,9.13
2019-04-11T12:17:34.776Z,8.23
2019-04-11T12:20:11.032Z,9.37
2019-04-11T12:22:40.241Z,8.23
2019-04-11T12:25:12.542Z,8.10
2019-04-11T12:27:45.726Z,8.75
2019-04-11T12:30:23.433Z,8.58
2019-04-11T12:32:53.380Z,8.03
2019-04-11T12:35:27.298Z,10.88
2019-04-11T12:38:00.826Z,9.13
2019-04-11T12:40:33.663Z,6.95
2019-04-11T12:43:06.484Z,8.43
2019-04-11T12:45:38.724Z,9.10
2019-04-11T12:48:12.167Z,7.77
2019-04-11T12:50:45.040Z,10.07
2019-04-11T12:53:18.078Z,9.90
2019-04-11T12:55:53.247Z,10.68
2019-04-11T12:58:26.134Z,9.83
2019-04-11T13:00:59.018Z,12.13
2019-04-11T13:03:31.956Z,7.72
2019-04-11T13:06:04.846Z,7.33
2019-04-11T13:08:37.690Z,7.87
2019-04-11T13:11:10.534Z,7.87
2019-04-11T13:13:43.551Z,6.80
2019-04-11T13:16:16.409Z,8.88
2019-04-11T13:18:49.318Z,9.08
2019-04-11T13:21:22.411Z,7.12
2019-04-11T13:23:55.726Z,8.10
2019-04-11T13:26:28.549Z,9.30
2019-04-11T13:29:01.572Z,7.17
2019-04-11T13:31:34.460Z,8.43
2019-04-11T13:34:07.339Z,8.03
2019-04-11T13:36:40.137Z,7.67
2019-04-11T13:39:13.076Z,8.20
2019-04-11T13:41:46.047Z,7.72
2019-04-11T13:44:19.329Z,10.65
2019-04-11T13:46:52.320Z,12.00
2019-04-11T13:49:25.556Z,9.93
2019-04-11T13:51:58.690Z,10.78
2019-04-11T13:54:31.621Z,7.37
2019-04-11T13:57:04.620Z,8.20
2019-04-11T13:59:38.220Z,9.12
2019-04-11T14:02:10.525Z,9.17
2019-04-11T14:04:42.813Z,13.17
2019-04-11T14:07:15.759Z,10.70
2019-04-11T14:09:48.106Z,10.43
2019-04-11T14:12:20.751Z,9.23
2019-04-11T14:14:53.285Z,8.83
2019-04-11T14:17:25.860Z,10.67
2019-04-11T14:19:58.447Z,9.93
2019-04-11T14:22:30.764Z,9.33
2019-04-11T14:25:03.107Z,9.33
2019-04-11T14:27:36.549Z,8.70
2019-04-11T14:30:09.378Z,8.58
2019-04-11T14:32:43.420Z,9.03
2019-04-11T14:35:16.206Z,8.70
2019-04-11T14:37:49.148Z,12.33
2019-04-11T14:40:22.289Z,10.30
2019-04-11T14:42:55.229Z,7.90
2019-04-11T14:45:28.481Z,8.28
2019-04-11T14:48:01.380Z,11.03
2019-04-11T14:50:40.631Z,8.43
2019-04-11T14:53:09.579Z,12.40
2019-04-11T14:55:43.062Z,11.33
2019-04-11T14:58:16.576Z,9.48
2019-04-11T15:00:53.761Z,8.70
2019-04-11T15:03:25.668Z,8.70
2019-04-11T15:05:59.827Z,10.60
2019-04-11T15:08:32.736Z,8.33
2019-04-11T15:11:05.619Z,8.77
2019-04-11T15:13:38.037Z,8.20
2019-04-11T15:16:11.066Z,9.73
2019-04-11T15:18:44.718Z,10.43
2019-04-11T15:21:17.307Z,9.87
2019-04-11T15:23:50.478Z,12.57
2019-04-11T15:26:23.297Z,9.23
2019-04-11T15:28:55.936Z,8.40
2019-04-11T15:31:38.740Z,10.80
2019-04-11T15:34:02.420Z,8.33
2019-04-11T15:36:34.728Z,9.47
2019-04-11T15:39:07.068Z,11.03
2019-04-11T15:41:39.811Z,10.00
2019-04-11T15:44:13.995Z,13.83
2019-04-11T15:46:47.859Z,9.83
2019-04-11T15:49:29.610Z,9.80
2019-04-11T15:51:56.021Z,11.70
2019-04-11T15:54:28.452Z,9.07
2019-04-11T15:57:01.333Z,8.13
2019-04-11T15:59:34.249Z,7.72
2019-04-11T16:02:07.085Z,9.05
2019-04-11T16:04:39.989Z,10.20
2019-04-11T16:07:13.330Z,10.60
2019-04-11T16:09:46.221Z,9.18
2019-04-11T16:12:19.168Z,10.63
2019-04-11T16:14:52.305Z,9.88
2019-04-11T16:17:25.578Z,8.15
2019-04-11T16:19:58.073Z,8.77
2019-04-11T16:22:30.429Z,10.60
2019-04-11T16:25:02.740Z,9.73
2019-04-11T16:27:36.628Z,8.60
2019-04-11T16:30:10.982Z,11.40
2019-04-11T16:32:44.132Z,9.68
2019-04-11T16:35:17.728Z,8.70
2019-04-11T16:37:50.724Z,9.55
2019-04-11T16:40:23.815Z,10.05
2019-04-11T16:42:59.051Z,10.53
2019-04-11T16:45:31.303Z,10.55
2019-04-11T16:48:03.493Z,11.77
2019-04-11T16:50:35.856Z,9.43
2019-04-11T16:53:10.685Z,12.83
2019-04-11T16:55:43.446Z,10.23
2019-04-11T16:58:19.457Z,10.27
2019-04-11T17:00:52.644Z,11.60
2019-04-11T17:03:25.083Z,9.63
2019-04-11T17:05:58.429Z,10.50
2019-04-11T17:08:30.653Z,11.67
2019-04-11T17:11:02.990Z,12.43
2019-04-11T17:13:35.210Z,10.20
2019-04-11T17:16:07.500Z,9.40
2019-04-11T17:18:39.765Z,12.83
2019-04-11T17:21:12.040Z,12.33
2019-04-11T17:23:46.851Z,11.43
2019-04-11T17:26:18.280Z,11.80
2019-04-11T17:28:53.702Z,9.60
2019-04-11T17:31:25.934Z,10.93
2019-04-11T17:34:01.487Z,12.93
2019-04-11T17:36:33.548Z,17.20
2019-04-11T17:39:07.037Z,10.70
2019-04-11T17:41:42.032Z,11.87
2019-04-11T17:44:15.089Z,11.53
2019-04-11T17:46:47.325Z,9.07
2019-04-11T17:49:19.892Z,11.67
2019-04-11T17:51:55.928Z,9.83
2019-04-11T17:54:26.756Z,8.87
2019-04-11T17:56:59.386Z,11.30
2019-04-11T17:59:31.725Z,11.20
2019-04-11T18:02:03.988Z,13.70
2019-04-11T18:04:36.520Z,10.60
2019-04-11T18:07:08.911Z,10.20
2019-04-11T18:09:41.232Z,9.33
2019-04-11T18:12:13.458Z,9.83
2019-04-11T18:14:46.216Z,9.57
2019-04-11T18:17:18.520Z,10.73
2019-04-11T18:19:50.863Z,8.07
2019-04-11T18:22:23.192Z,8.50
2019-04-11T18:24:55.507Z,13.07
2019-04-11T18:27:27.830Z,9.87
2019-04-11T18:30:00.441Z,9.03
2019-04-11T18:32:33.910Z,11.23
2019-04-11T18:35:06.123Z,11.90
2019-04-11T18:37:38.380Z,10.87
2019-04-11T18:40:10.664Z,10.00
2019-04-11T18:42:42.700Z,9.17
2019-04-11T18:45:14.970Z,9.60
2019-04-11T18:47:48.445Z,10.53
2019-04-11T18:50:22.702Z,10.57
2019-04-11T18:52:59.152Z,9.60
2019-04-11T18:55:29.114Z,12.20
2019-04-11T18:58:04.149Z,11.10
2019-04-11T19:00:38.374Z,10.90
2019-04-11T19:03:10.332Z,11.83
2019-04-11T19:05:43.639Z,10.93
2019-04-11T19:08:15.943Z,10.50
2019-04-11T19:10:48.170Z,10.20
2019-04-11T19:13:20.495Z,12.20
2019-04-11T19:15:53.745Z,10.73
2019-04-11T19:18:26.093Z,11.03
2019-04-11T19:20:58.516Z,10.97
2019-04-11T19:23:31.165Z,10.07
2019-04-11T19:26:03.409Z,10.57
2019-04-11T19:28:35.702Z,11.77
2019-04-11T19:31:07.997Z,9.63
2019-04-11T19:33:40.475Z,11.27
2019-04-11T19:36:12.883Z,11.37
2019-04-11T19:38:45.351Z,10.50
2019-04-11T19:41:18.343Z,9.13
2019-04-11T19:43:50.705Z,10.17
2019-04-11T19:46:22.911Z,12.63
2019-04-11T19:48:59.141Z,12.30
2019-04-11T19:51:29.608Z,9.50
2019-04-11T19:54:03.284Z,10.47
2019-04-11T19:56:35.931Z,9.43
2019-04-11T19:59:08.120Z,13.50
2019-04-11T20:01:40.392Z,12.90
2019-04-11T20:04:12.640Z,12.13
2019-04-11T20:06:44.955Z,10.10
2019-04-11T20:09:17.286Z,12.87
2019-04-11T20:11:49.577Z,11.13
2019-04-11T20:14:21.873Z,13.67
2019-04-11T20:16:54.106Z,14.00
2019-04-11T20:19:27.380Z,11.13
2019-04-11T20:22:00.325Z,10.43
2019-04-11T20:24:32.633Z,10.77
2019-04-11T20:27:04.902Z,10.30
2019-04-11T20:29:37.123Z,11.37
2019-04-11T20:32:09.496Z,12.07
2019-04-11T20:34:41.719Z,11.20
2019-04-11T20:37:14.050Z,12.53
2019-04-11T20:39:47.455Z,10.97
2019-04-11T20:42:24.039Z,12.07
2019-04-11T20:44:58.290Z,11.23
2019-04-11T20:47:30.179Z,12.80
2019-04-11T20:50:07.339Z,12.57
2019-04-11T20:52:36.587Z,16.07
2019-04-11T20:55:09.861Z,12.63
2019-04-11T20:57:42.250Z,12.20
2019-04-11T21:00:14.477Z,12.93
2019-04-11T21:02:46.986Z,14.97
2019-04-11T21:05:19.282Z,11.00
2019-04-11T21:07:51.533Z,12.53
2019-04-11T21:10:25.231Z,13.97
2019-04-11T21:12:57.517Z,10.17
2019-04-11T21:15:29.972Z,13.00
2019-04-11T21:18:02.340Z,10.37
2019-04-11T21:20:34.815Z,11.57
2019-04-11T21:23:06.890Z,10.20
2019-04-11T21:25:39.200Z,13.70
2019-04-11T21:28:11.815Z,14.53
2019-04-11T21:30:44.085Z,12.67
2019-04-11T21:33:16.415Z,12.07
2019-04-11T21:35:48.723Z,9.70
2019-04-11T21:38:20.955Z,13.07
2019-04-11T21:40:53.617Z,12.30
2019-04-11T21:43:25.968Z,11.53
2019-04-11T21:45:58.390Z,9.57
2019-04-11T21:48:30.618Z,13.10
2019-04-11T21:51:03.198Z,9.97
2019-04-11T21:53:37.011Z,11.37
2019-04-11T21:56:09.384Z,13.27
2019-04-11T21:58:41.687Z,10.63
2019-04-11T22:01:13.914Z,11.13
2019-04-11T22:03:48.399Z,12.67
2019-04-11T22:06:20.675Z,9.47
2019-04-11T22:08:53.138Z,11.30
2019-04-11T22:11:26.664Z,10.10
2019-04-11T22:13:58.944Z,12.10
2019-04-11T22:16:31.328Z,11.77
2019-04-11T22:19:03.915Z,10.73
2019-04-11T22:21:36.198Z,10.27
2019-04-11T22:24:08.427Z,10.43
2019-04-11T22:26:40.904Z,10.63
2019-04-11T22:29:13.532Z,14.60
2019-04-11T22:31:45.832Z,11.43
2019-04-11T22:34:18.256Z,14.07
2019-04-11T22:36:50.688Z,11.33
2019-04-11T22:39:23.068Z,12.77
2019-04-11T22:41:55.360Z,11.40
2019-04-11T22:44:27.735Z,10.13
2019-04-11T22:47:00.157Z,13.70
2019-04-11T22:49:32.382Z,11.97
2019-04-11T22:52:04.826Z,12.17
2019-04-11T22:54:38.277Z,10.07
2019-04-11T22:57:12.215Z,11.10
2019-04-11T22:59:45.322Z,11.07
2019-04-11T23:02:17.741Z,12.53
2019-04-11T23:04:50.097Z,11.50
2019-04-11T23:07:22.397Z,12.93
2019-04-11T23:09:56.951Z,11.47
2019-04-11T23:12:30.269Z,10.40
2019-04-11T23:15:02.554Z,13.13
2019-04-11T23:17:35.143Z,10.77
2019-04-11T23:20:07.433Z,11.90
2019-04-11T23:22:40.093Z,11.63
2019-04-11T23:25:13.816Z,12.53
2019-04-11T23:27:46.128Z,13.83
2019-04-11T23:30:19.085Z,12.10
2019-04-11T23:32:51.796Z,11.67
2019-04-11T23:35:24.237Z,16.37
2019-04-11T23:37:56.454Z,12.50
2019-04-11T23:40:28.824Z,13.77
2019-04-11T23:43:01.090Z,14.03
2019-04-11T23:45:33.308Z,11.60
2019-04-11T23:48:05.570Z,17.83
2019-04-11T23:50:37.849Z,11.60
2019-04-11T23:53:10.053Z,13.77
2019-04-11T23:55:42.332Z,11.13
2019-04-11T23:58:14.531Z,9.90
